Time;durP1;ratioP1;P1;durP2;ratioP2;P2;SDS_P1;SDS_P2;PMS_P1;PMS_P2;Temp;Humidity;BMP_temperature;BMP_pressure;BME280_temperature;BME280_humidity;BME280_pressure;Samples;Min_cycle;Max_cycle;Signal;HPM_P1;HPM_P2
2022/04/30 00:01:24;;;;;;;22.55;17.13;;;13.30;1.00;;;;;;5072148;28;20425;-59
2022/04/30 00:03:50;;;;;;;22.60;16.00;;;13.30;1.00;;;;;;5092892;28;20452;-59
2022/04/30 00:06:15;;;;;;;22.27;15.63;;;13.30;99.90;;;;;;5090724;28;20406;-59
2022/04/30 00:08:41;;;;;;;22.10;16.20;;;13.20;17.00;;;;;;5092456;28;20386;-59
2022/04/30 00:11:07;;;;;;;20.67;15.00;;;13.10;1.00;;;;;;5073446;28;20391;-59
2022/04/30 00:13:33;;;;;;;17.73;13.70;;;13.10;1.00;;;;;;5071737;28;20946;-59
2022/04/30 00:15:59;;;;;;;17.85;13.05;;;13.20;99.90;;;;;;5088211;28;20392;-57
2022/04/30 00:18:25;;;;;;;18.30;12.90;;;13.10;99.90;;;;;;5092129;28;20370;-59
2022/04/30 00:20:51;;;;;;;18.05;12.27;;;13.10;99.90;;;;;;5076656;28;20880;-59
2022/04/30 00:23:19;;;;;;;17.05;11.88;;;13.00;99.90;;;;;;5070944;28;20494;-59
2022/04/30 00:25:55;;;;;;;17.58;12.68;;;12.90;99.90;;;;;;5072781;28;20447;-59
2022/04/30 00:28:22;;;;;;;16.88;12.52;;;12.90;99.90;;;;;;5088390;28;20447;-59
2022/04/30 00:30:49;;;;;;;19.05;12.52;;;13.00;99.90;;;;;;5092134;28;20397;-59
2022/04/30 00:33:15;;;;;;;18.48;12.55;;;12.90;99.90;;;;;;5074173;28;20406;-59
2022/04/30 00:35:41;;;;;;;16.75;12.25;;;12.90;99.90;;;;;;5071756;28;20494;-59
2022/04/30 00:38:08;;;;;;;16.58;11.80;;;12.70;99.90;;;;;;5085639;28;20863;-59
2022/04/30 00:40:34;;;;;;;19.42;12.20;;;12.70;99.90;;;;;;5072418;28;20393;-59
2022/04/30 00:42:59;;;;;;;19.73;13.00;;;12.80;99.90;;;;;;5091256;28;20863;-57
2022/04/30 00:45:25;;;;;;;18.90;12.37;;;12.80;99.90;;;;;;5086503;28;20473;-60
2022/04/30 00:47:51;;;;;;;19.33;12.77;;;12.80;99.90;;;;;;5091701;28;20739;-59
2022/04/30 00:50:17;;;;;;;17.45;12.73;;;12.80;99.90;;;;;;5075288;28;20885;-59
2022/04/30 00:52:46;;;;;;;16.80;11.98;;;12.80;99.90;;;;;;5071095;28;20391;-59
2022/04/30 00:55:13;;;;;;;23.98;12.82;;;12.80;99.90;;;;;;5084104;28;20481;-59
2022/04/30 00:57:43;;;;;;;18.53;12.70;;;12.80;99.90;;;;;;5091146;28;20370;-59
2022/04/30 01:00:10;;;;;;;21.90;12.87;;;12.80;99.90;;;;;;5076860;28;20486;-59
2022/04/30 01:02:36;;;;;;;18.75;13.50;;;12.70;99.90;;;;;;5071287;28;20403;-59
2022/04/30 01:05:03;;;;;;;19.02;13.10;;;12.80;1.00;;;;;;5082690;28;20401;-57
2022/04/30 01:07:30;;;;;;;20.60;13.32;;;12.70;1.00;;;;;;5091156;28;20859;-59
2022/04/30 01:09:56;;;;;;;20.55;13.70;;;12.80;99.90;;;;;;5079509;28;20392;-59
2022/04/30 01:12:23;;;;;;;23.25;13.70;;;12.70;99.90;;;;;;5070014;28;20383;-59
2022/04/30 01:14:52;;;;;;;21.25;14.40;;;12.60;1.00;;;;;;5063309;28;20443;-59
2022/04/30 01:17:18;;;;;;;22.30;14.27;;;12.60;99.90;;;;;;5074731;28;20514;-60
2022/04/30 01:19:47;;;;;;;24.77;16.10;;;12.60;1.00;;;;;;5075109;28;20486;-59
2022/04/30 01:22:21;;;;;;;22.88;14.52;;;12.60;99.90;;;;;;5075693;28;20702;-59
2022/04/30 01:24:49;;;;;;;25.27;15.63;;;12.60;1.00;;;;;;5070409;28;20456;-59
2022/04/30 01:27:16;;;;;;;26.20;15.50;;;12.60;99.90;;;;;;5070059;28;20383;-59
2022/04/30 01:29:42;;;;;;;26.33;15.60;;;12.60;1.00;;;;;;5065941;28;20395;-59
2022/04/30 01:37:36;;;;;;;28.08;17.23;;;12.50;99.90;;;;;;5050993;28;20392;-59
2022/04/30 01:40:10;;;;;;;29.83;16.93;;;12.40;1.00;;;;;;5050099;28;20488;-57
2022/04/30 01:42:41;;;;;;;28.00;17.17;;;12.50;99.90;;;;;;5050277;28;20442;-59
2022/04/30 01:45:08;;;;;;;26.13;16.90;;;12.50;1.00;;;;;;5065304;28;20951;-59
2022/04/30 01:47:36;;;;;;;28.88;16.50;;;12.40;1.00;;;;;;5070204;28;20383;-59
2022/04/30 01:50:03;;;;;;;24.23;16.30;;;12.40;1.00;;;;;;5053563;28;20406;-57
2022/04/30 01:52:30;;;;;;;29.08;16.27;;;12.40;18.00;;;;;;5049953;28;20859;-59
2022/04/30 01:54:56;;;;;;;28.08;16.90;;;12.40;80.10;;;;;;5064424;28;20872;-58
2022/04/30 01:57:26;;;;;;;28.63;17.30;;;12.40;1.00;;;;;;5069396;28;20399;-59
2022/04/30 01:59:56;;;;;;;28.55;17.92;;;12.40;79.20;;;;;;5055541;28;20388;-59
2022/04/30 02:02:24;;;;;;;30.52;17.75;;;12.40;99.90;;;;;;5049224;28;20380;-59
2022/04/30 02:04:54;;;;;;;34.67;18.05;;;12.30;99.90;;;;;;5051136;28;20470;-59
2022/04/30 02:07:21;;;;;;;34.03;17.42;;;12.30;99.90;;;;;;5049183;28;20365;-59
2022/04/30 02:09:51;;;;;;;32.63;17.65;;;12.30;99.90;;;;;;5050771;28;20392;-59
2022/04/30 02:12:17;;;;;;;31.25;18.55;;;12.30;99.90;;;;;;5049128;28;20384;-59
2022/04/30 02:14:48;;;;;;;30.73;18.67;;;12.30;99.90;;;;;;5062236;28;20460;-59
2022/04/30 02:17:15;;;;;;;29.30;17.42;;;12.30;99.90;;;;;;5069120;28;20387;-59
2022/04/30 02:22:30;;;;;;;33.28;18.40;;;12.20;99.90;;;;;;5069462;28;20431;-59
2022/04/30 02:24:57;;;;;;;30.73;17.92;;;12.30;99.90;;;;;;5051459;28;20943;-59
2022/04/30 02:27:24;;;;;;;29.67;17.90;;;12.20;99.90;;;;;;5060929;28;20392;-59
2022/04/30 02:29:49;;;;;;;30.63;17.47;;;12.20;99.90;;;;;;5069701;28;20379;-59
2022/04/30 02:32:16;;;;;;;29.88;18.80;;;12.20;1.00;;;;;;5057664;28;20393;-59
2022/04/30 02:34:42;;;;;;;30.60;17.70;;;12.20;1.00;;;;;;5049717;28;20439;-58
2022/04/30 02:37:13;;;;;;;31.90;17.73;;;12.10;1.00;;;;;;5058111;28;20395;-58
2022/04/30 02:39:38;;;;;;;37.10;18.67;;;12.10;1.00;;;;;;5069353;28;20919;-58
2022/04/30 02:42:04;;;;;;;29.45;17.83;;;12.10;1.00;;;;;;5068379;28;20392;-57
2022/04/30 02:44:31;;;;;;;28.17;17.65;;;12.00;1.00;;;;;;5068164;28;20400;-58
2022/04/30 02:46:57;;;;;;;30.02;17.60;;;12.00;1.00;;;;;;5049537;28;20755;-62
2022/04/30 02:49:23;;;;;;;27.15;16.85;;;12.00;1.00;;;;;;5048320;28;21001;-58
2022/04/30 02:51:49;;;;;;;33.07;18.40;;;11.90;1.00;;;;;;5049386;28;20397;-59
2022/04/30 02:54:15;;;;;;;28.40;17.15;;;11.80;1.00;;;;;;5048684;28;20385;-59
2022/04/30 02:56:42;;;;;;;30.20;17.75;;;11.80;1.00;;;;;;5067937;28;20426;-59
2022/04/30 03:01:52;;;;;;;30.95;18.10;;;11.80;1.00;;;;;;5053513;28;20393;-59
2022/04/30 03:04:18;;;;;;;32.23;19.23;;;11.80;1.00;;;;;;5052416;28;20902;-59
2022/04/30 03:06:46;;;;;;;36.67;20.50;;;11.70;1.00;;;;;;5072045;28;20865;-58
2022/04/30 03:09:12;;;;;;;33.13;18.63;;;11.70;1.00;;;;;;5072077;28;20749;-59
2022/04/30 03:11:38;;;;;;;36.08;19.63;;;11.70;1.00;;;;;;5054944;28;20391;-59
2022/04/30 03:14:04;;;;;;;38.03;20.13;;;11.70;1.00;;;;;;5053919;28;20480;-56
2022/04/30 03:21:59;;;;;;;35.58;20.40;;;11.60;1.00;;;;;;5072860;28;20769;-59
2022/04/30 03:24:27;;;;;;;36.88;20.45;;;11.70;1.00;;;;;;5056989;28;20499;-59
2022/04/30 03:26:53;;;;;;;37.38;21.10;;;11.60;1.00;;;;;;5053126;28;20389;-59
2022/04/30 03:29:19;;;;;;;39.33;20.37;;;11.60;1.00;;;;;;5065351;28;20387;-59
2022/04/30 03:31:45;;;;;;;35.80;20.67;;;11.60;1.00;;;;;;5073011;28;20459;-59
2022/04/30 03:34:14;;;;;;;41.17;21.10;;;11.60;1.00;;;;;;5053321;28;20814;-59
2022/04/30 03:36:40;;;;;;;37.70;21.45;;;11.60;1.00;;;;;;5052775;28;20455;-59
2022/04/30 03:39:06;;;;;;;36.38;20.65;;;11.50;1.00;;;;;;5069197;28;20864;-57
2022/04/30 03:41:32;;;;;;;42.40;21.93;;;11.40;1.00;;;;;;5065995;28;20394;-59
2022/04/30 03:43:58;;;;;;;37.38;20.55;;;11.50;1.00;;;;;;5052638;28;20466;-59
2022/04/30 03:46:24;;;;;;;40.22;22.30;;;11.50;1.00;;;;;;5057070;28;20449;-58
2022/04/30 03:48:53;;;;;;;41.90;22.05;;;11.50;1.00;;;;;;5072473;28;20387;-59
2022/04/30 03:51:22;;;;;;;36.60;22.37;;;11.60;1.00;;;;;;5066109;28;20401;-59
2022/04/30 03:53:48;;;;;;;45.08;23.58;;;11.60;1.00;;;;;;5052574;28;20378;-59
2022/04/30 03:56:16;;;;;;;43.03;23.00;;;11.50;1.00;;;;;;5055317;28;20403;-58
2022/04/30 03:58:42;;;;;;;41.83;23.30;;;11.60;1.00;;;;;;5072231;28;20380;-59
2022/04/30 04:01:08;;;;;;;44.97;23.20;;;11.60;1.00;;;;;;5068112;28;20401;-58
2022/04/30 04:03:36;;;;;;;43.53;23.37;;;11.50;4.90;;;;;;5052597;28;20414;-59
2022/04/30 04:06:02;;;;;;;42.30;22.75;;;11.60;1.00;;;;;;5036082;28;20459;-58
2022/04/30 04:08:28;;;;;;;45.95;24.67;;;11.50;11.50;;;;;;5071541;28;20376;-59
2022/04/30 04:10:55;;;;;;;39.03;23.75;;;11.40;18.10;;;;;;5070474;28;20869;-58
2022/04/30 04:18:51;;;;;;;44.45;24.65;;;11.30;40.40;;;;;;5071890;28;20478;-58
2022/04/30 04:21:19;;;;;;;42.13;23.25;;;11.30;51.30;;;;;;5054501;28;20401;-58
2022/04/30 04:26:30;;;;;;;43.67;22.77;;;11.20;75.90;;;;;;5090308;28;20508;-59
2022/04/30 04:28:55;;;;;;;45.47;25.20;;;11.30;91.60;;;;;;5091782;28;20370;-58
2022/04/30 04:31:22;;;;;;;44.43;24.50;;;11.30;98.70;;;;;;5072186;28;20388;-58
2022/04/30 04:33:49;;;;;;;48.42;25.08;;;11.30;91.80;;;;;;5071831;28;20395;-59
2022/04/30 04:36:16;;;;;;;45.22;25.17;;;11.30;98.80;;;;;;5088337;28;20466;-58
2022/04/30 04:38:42;;;;;;;44.67;26.35;;;11.20;99.90;;;;;;5091775;28;20382;-59
2022/04/30 04:41:08;;;;;;;47.70;25.08;;;11.20;99.90;;;;;;5074371;28;20391;-58
2022/04/30 04:43:33;;;;;;;45.17;25.10;;;11.10;99.90;;;;;;5071274;28;20891;-59
2022/04/30 04:46:02;;;;;;;48.67;26.10;;;11.20;99.90;;;;;;5086516;28;20886;-58
2022/04/30 04:48:29;;;;;;;45.80;24.87;;;11.20;99.90;;;;;;5082417;28;20388;-59
2022/04/30 04:50:55;;;;;;;49.67;25.58;;;11.10;99.90;;;;;;5071274;28;20486;-58
2022/04/30 04:53:20;;;;;;;43.13;26.30;;;11.10;99.90;;;;;;5077470;28;20918;-58
2022/04/30 04:55:46;;;;;;;49.03;26.23;;;11.10;99.90;;;;;;5091548;28;20374;-59
2022/04/30 04:58:12;;;;;;;45.72;26.70;;;11.20;99.90;;;;;;5084200;28;20405;-59
2022/04/30 05:00:38;;;;;;;43.78;25.77;;;11.30;99.90;;;;;;5070859;28;20726;-58
2022/04/30 05:03:04;;;;;;;45.95;25.90;;;11.20;99.90;;;;;;5074944;28;20414;-57
2022/04/30 05:05:29;;;;;;;43.55;24.92;;;11.20;99.90;;;;;;5090937;28;20455;-58
2022/04/30 05:07:56;;;;;;;48.83;26.40;;;11.10;99.90;;;;;;5089157;28;20475;-58
2022/04/30 05:10:21;;;;;;;46.55;25.17;;;11.10;99.90;;;;;;5090413;28;20379;-59
2022/04/30 05:12:47;;;;;;;46.85;24.70;;;11.30;99.90;;;;;;5088417;28;20435;-58
2022/04/30 05:15:13;;;;;;;46.60;26.35;;;11.30;99.90;;;;;;5070450;28;20407;-58
2022/04/30 05:17:39;;;;;;;46.90;25.30;;;11.20;99.90;;;;;;5071489;28;20383;-58
2022/04/30 05:20:05;;;;;;;48.70;26.47;;;11.20;99.90;;;;;;5090708;28;20394;-57
2022/04/30 05:22:32;;;;;;;48.53;26.90;;;11.30;99.90;;;;;;5080919;28;22307;-59
2022/04/30 05:24:57;;;;;;;48.58;26.75;;;11.40;99.90;;;;;;5070804;28;20382;-59
2022/04/30 05:27:23;;;;;;;47.23;27.00;;;11.40;99.90;;;;;;5057351;28;20478;-59
2022/04/30 05:29:49;;;;;;;46.88;25.75;;;11.50;99.90;;;;;;5070612;28;20380;-53
2022/04/30 05:32:15;;;;;;;47.67;25.20;;;11.50;99.90;;;;;;5069669;28;20368;-53
2022/04/30 05:34:40;;;;;;;45.70;27.23;;;11.40;99.90;;;;;;5070537;28;21002;-53
2022/04/30 05:37:06;;;;;;;51.10;27.17;;;11.40;99.90;;;;;;5062776;28;20389;-60
2022/04/30 05:39:32;;;;;;;51.80;25.60;;;11.50;99.90;;;;;;5051418;28;20397;-53
2022/04/30 05:41:58;;;;;;;49.03;26.27;;;11.50;99.90;;;;;;5036063;28;20399;-53
2022/04/30 05:44:24;;;;;;;48.63;26.88;;;11.40;99.90;;;;;;5049588;28;20430;-53
2022/04/30 05:46:49;;;;;;;44.57;26.60;;;11.40;99.90;;;;;;5066992;28;20876;-56
2022/04/30 05:49:15;;;;;;;46.55;25.75;;;11.50;99.90;;;;;;5058102;28;21270;-53
2022/04/30 05:51:41;;;;;;;46.40;25.63;;;11.40;99.90;;;;;;5055776;28;20403;-59
2022/04/30 05:54:07;;;;;;;47.47;26.75;;;11.40;99.90;;;;;;5069774;28;20474;-59
2022/04/30 05:56:33;;;;;;;51.83;26.25;;;11.40;99.90;;;;;;5055949;28;20402;-60
2022/04/30 05:58:59;;;;;;;45.95;25.95;;;11.50;99.90;;;;;;5037621;28;20760;-54
2022/04/30 06:01:25;;;;;;;43.37;24.97;;;11.60;99.90;;;;;;5064677;28;20382;-54
2022/04/30 06:03:51;;;;;;;43.85;23.92;;;11.70;99.90;;;;;;5053628;28;20411;-59
2022/04/30 06:06:19;;;;;;;41.30;24.08;;;11.70;99.90;;;;;;5060112;28;20399;-54
2022/04/30 06:08:46;;;;;;;46.90;25.00;;;11.70;99.90;;;;;;5054337;28;20430;-58
2022/04/30 06:11:11;;;;;;;46.15;26.05;;;11.70;99.20;;;;;;5067617;28;20392;-54
2022/04/30 06:13:37;;;;;;;45.30;24.40;;;11.80;99.90;;;;;;5057874;28;20750;-58
2022/04/30 06:16:03;;;;;;;45.57;24.83;;;11.80;79.30;;;;;;5069468;28;20474;-55
2022/04/30 06:18:29;;;;;;;39.13;23.77;;;11.80;92.50;;;;;;5067061;28;20418;-54
2022/04/30 06:20:54;;;;;;;37.90;24.17;;;11.80;67.20;;;;;;5049427;28;20396;-56
2022/04/30 06:23:20;;;;;;;42.33;23.80;;;11.80;77.70;;;;;;5069423;28;20419;-53
2022/04/30 06:25:47;;;;;;;40.00;23.67;;;11.70;96.30;;;;;;5075878;28;20478;-53
2022/04/30 06:28:14;;;;;;;39.00;23.83;;;11.90;99.90;;;;;;5068936;28;20408;-54
2022/04/30 06:30:40;;;;;;;34.78;21.48;;;11.90;98.80;;;;;;5083442;28;20469;-53
2022/04/30 06:33:07;;;;;;;36.65;21.58;;;11.90;51.20;;;;;;5080718;28;20489;-59
2022/04/30 06:35:33;;;;;;;37.85;22.52;;;11.80;91.20;;;;;;5068653;28;20853;-57
2022/04/30 06:37:59;;;;;;;37.85;22.35;;;11.80;93.30;;;;;;5089930;28;20424;-55
2022/04/30 06:40:24;;;;;;;38.37;22.47;;;11.90;94.00;;;;;;5087178;28;20566;-54
2022/04/30 06:42:50;;;;;;;38.85;22.52;;;11.90;99.90;;;;;;5087609;28;20414;-54
2022/04/30 06:45:17;;;;;;;35.60;21.90;;;12.00;99.90;;;;;;5068670;28;20817;-54
2022/04/30 06:47:43;;;;;;;36.33;21.90;;;12.00;56.40;;;;;;5081799;28;20394;-53
2022/04/30 06:50:09;;;;;;;38.23;22.53;;;12.10;75.10;;;;;;5081152;28;20396;-60
2022/04/30 06:57:07;;;;;;;36.90;21.02;;;12.10;56.40;;;;;;5069250;28;20853;-53
2022/04/30 06:58:06;;;;;;;34.03;20.55;;;12.00;69.40;;;;;;5082552;28;20407;-59
2022/04/30 07:03:19;;;;;;;38.00;21.10;;;12.00;86.70;;;;;;5069571;28;20427;-53
2022/04/30 07:05:46;;;;;;;37.20;21.23;;;11.90;54.80;;;;;;5086116;28;20413;-54
2022/04/30 07:08:11;;;;;;;33.72;20.75;;;11.90;91.70;;;;;;5077059;28;20482;-53
2022/04/30 07:10:37;;;;;;;33.72;19.90;;;12.10;84.40;;;;;;5070813;28;20928;-53
2022/04/30 07:13:03;;;;;;;34.10;20.90;;;12.10;60.60;;;;;;5088755;28;20390;-54
2022/04/30 07:15:28;;;;;;;33.47;19.45;;;12.00;62.20;;;;;;5076707;28;20393;-53
2022/04/30 07:17:54;;;;;;;33.70;20.63;;;11.90;56.20;;;;;;5087077;28;20387;-54
2022/04/30 07:20:20;;;;;;;30.13;18.98;;;12.00;81.20;;;;;;5073778;28;20880;-54
2022/04/30 07:22:45;;;;;;;36.28;20.77;;;11.90;67.00;;;;;;5078856;28;20462;-56
2022/04/30 07:25:11;;;;;;;31.33;19.27;;;12.00;99.90;;;;;;5081461;28;20382;-54
2022/04/30 07:27:37;;;;;;;30.90;18.83;;;12.00;80.80;;;;;;5080724;28;20800;-53
2022/04/30 07:30:03;;;;;;;32.93;19.40;;;12.10;70.00;;;;;;5070402;28;20400;-52
2022/04/30 07:32:29;;;;;;;33.30;19.90;;;12.20;44.10;;;;;;5079725;28;20459;-52
2022/04/30 07:34:55;;;;;;;31.98;19.60;;;12.10;24.60;;;;;;5078080;28;20386;-54
2022/04/30 07:37:20;;;;;;;31.00;18.95;;;12.10;73.80;;;;;;5085868;28;20477;-53
2022/04/30 07:39:46;;;;;;;30.70;19.60;;;12.30;96.20;;;;;;5079912;28;20387;-52
2022/04/30 07:42:12;;;;;;;32.20;19.30;;;12.50;30.00;;;;;;5088192;28;20382;-53
2022/04/30 07:44:39;;;;;;;28.63;18.08;;;12.40;39.40;;;;;;5082308;28;20493;-52
2022/04/30 07:47:05;;;;;;;30.75;18.40;;;12.40;40.80;;;;;;5052110;28;20388;-52
2022/04/30 07:49:31;;;;;;;31.20;19.30;;;12.50;8.70;;;;;;5084580;28;20386;-52
2022/04/30 07:51:57;;;;;;;30.08;17.88;;;12.40;3.30;;;;;;5080167;28;20419;-52
2022/04/30 07:54:23;;;;;;;28.58;18.25;;;12.30;28.70;;;;;;5071325;28;20419;-55
2022/04/30 07:56:53;;;;;;;28.58;18.50;;;12.40;5.30;;;;;;5072169;28;20467;-53
2022/04/30 07:59:20;;;;;;;33.17;17.83;;;12.20;24.20;;;;;;5071450;28;20380;-54
2022/04/30 08:01:46;;;;;;;28.75;18.88;;;12.30;25.30;;;;;;5072399;28;20380;-54
2022/04/30 08:04:12;;;;;;;31.20;18.73;;;12.40;32.80;;;;;;5072224;28;20577;-54
2022/04/30 08:06:38;;;;;;;27.83;17.08;;;12.30;24.60;;;;;;5074107;28;20474;-54
2022/04/30 08:09:04;;;;;;;31.40;18.40;;;12.20;22.80;;;;;;5053837;28;20379;-54
2022/04/30 08:11:30;;;;;;;27.23;18.13;;;12.20;29.90;;;;;;5053290;28;20383;-55
2022/04/30 08:13:55;;;;;;;27.27;17.17;;;12.30;39.00;;;;;;5082836;28;20408;-54
2022/04/30 08:16:21;;;;;;;26.65;17.45;;;12.40;22.70;;;;;;5066654;28;20855;-54
2022/04/30 08:18:47;;;;;;;28.15;18.40;;;12.20;27.30;;;;;;5088148;28;20826;-54
2022/04/30 08:21:12;;;;;;;28.40;19.20;;;12.10;90.90;;;;;;5082742;28;20864;-55
2022/04/30 08:23:38;;;;;;;29.90;18.40;;;12.10;66.00;;;;;;5067545;28;20415;-54
2022/04/30 08:26:04;;;;;;;28.98;18.40;;;12.10;67.00;;;;;;5045707;28;20415;-54
2022/04/30 08:28:30;;;;;;;29.33;18.17;;;12.10;86.70;;;;;;5066285;28;20540;-54
2022/04/30 08:30:57;;;;;;;29.13;17.88;;;12.30;40.00;;;;;;5061728;28;20397;-54
2022/04/30 08:33:23;;;;;;;28.33;17.50;;;12.40;15.40;;;;;;5064118;28;20433;-54
2022/04/30 08:35:49;;;;;;;26.08;18.00;;;12.40;24.60;;;;;;5062502;28;20771;-54
2022/04/30 08:38:14;;;;;;;26.57;17.53;;;12.50;5.60;;;;;;5057749;28;20933;-54
2022/04/30 08:40:44;;;;;;;30.42;18.88;;;12.50;1.00;;;;;;5061646;28;20381;-54
2022/04/30 08:43:11;;;;;;;27.98;18.20;;;12.40;6.60;;;;;;5067498;28;20880;-57
2022/04/30 08:45:38;;;;;;;31.20;18.83;;;12.40;14.50;;;;;;5065408;28;20391;-54
2022/04/30 08:48:11;;;;;;;28.60;17.70;;;12.40;26.20;;;;;;5065597;28;20474;-55
2022/04/30 08:50:38;;;;;;;26.77;17.65;;;12.30;12.60;;;;;;5063611;28;20409;-54
2022/04/30 08:53:04;;;;;;;26.05;16.88;;;12.30;28.80;;;;;;5068458;28;20812;-53
2022/04/30 08:55:30;;;;;;;27.50;17.40;;;12.30;14.20;;;;;;5064926;28;20939;-54
2022/04/30 08:57:56;;;;;;;28.57;17.83;;;12.30;33.50;;;;;;5063010;28;20381;-54
2022/04/30 09:00:22;;;;;;;29.45;18.70;;;12.20;25.90;;;;;;5064393;28;20383;-53
2022/04/30 09:02:59;;;;;;;31.67;17.90;;;12.30;79.60;;;;;;5065332;28;20402;-56
2022/04/30 09:05:36;;;;;;;30.00;18.30;;;12.50;78.20;;;;;;5062087;28;20396;-53
2022/04/30 09:08:03;;;;;;;27.67;16.88;;;12.60;54.60;;;;;;5065063;28;20925;-53
2022/04/30 09:10:31;;;;;;;25.15;15.77;;;12.50;24.80;;;;;;5061158;28;20381;-54
2022/04/30 09:13:08;;;;;;;26.13;15.77;;;12.40;18.80;;;;;;5065721;28;20403;-53
2022/04/30 09:15:34;;;;;;;23.30;16.20;;;12.40;10.50;;;;;;5061306;28;20873;-53
2022/04/30 09:18:01;;;;;;;23.58;14.90;;;12.40;21.60;;;;;;5058028;28;20392;-53
2022/04/30 09:20:29;;;;;;;23.55;15.80;;;12.30;31.20;;;;;;5064177;28;20407;-53
2022/04/30 09:22:56;;;;;;;24.92;16.02;;;12.30;57.90;;;;;;5076355;28;20806;-54
2022/04/30 09:25:22;;;;;;;25.50;15.80;;;12.30;64.80;;;;;;5080248;28;20882;-53
2022/04/30 09:27:50;;;;;;;24.05;15.77;;;12.40;44.40;;;;;;5089974;28;20385;-53
2022/04/30 09:30:29;;;;;;;24.95;15.38;;;12.30;45.90;;;;;;5090008;28;20412;-56
2022/04/30 09:33:13;;;;;;;23.35;14.95;;;12.10;46.70;;;;;;5089209;28;20402;-54
2022/04/30 09:38:25;;;;;;;21.88;14.40;;;11.90;99.90;;;;;;5077202;28;20429;-56
2022/04/30 09:40:58;;;;;;;24.20;14.88;;;11.80;99.90;;;;;;5088531;28;20851;-53
2022/04/30 09:43:37;;;;;;;23.27;15.23;;;11.90;91.30;;;;;;5066640;28;20489;-53
2022/04/30 09:46:06;;;;;;;24.40;15.10;;;11.90;92.20;;;;;;5084314;28;20406;-53
2022/04/30 09:54:01;;;;;;;20.42;13.02;;;11.80;94.80;;;;;;5083415;28;20837;-56
2022/04/30 09:56:33;;;;;;;22.27;13.87;;;11.80;52.10;;;;;;5081324;28;20414;-56
2022/04/30 09:59:01;;;;;;;18.70;12.20;;;11.90;82.70;;;;;;5086526;28;20386;-53
2022/04/30 10:01:31;;;;;;;16.80;10.83;;;11.90;42.80;;;;;;5077487;28;20946;-53
2022/04/30 10:03:58;;;;;;;16.45;10.25;;;11.70;28.60;;;;;;5080803;28;20420;-54
2022/04/30 10:06:24;;;;;;;17.10;10.57;;;11.70;43.90;;;;;;5085047;28;20404;-55
2022/04/30 10:08:51;;;;;;;16.45;10.38;;;11.70;54.20;;;;;;5084228;28;20480;-53
2022/04/30 10:11:37;;;;;;;15.03;9.50;;;11.90;58.30;;;;;;5078540;28;20390;-56
2022/04/30 10:14:09;;;;;;;15.75;9.95;;;11.90;13.70;;;;;;5084207;28;20402;-54
2022/04/30 10:16:35;;;;;;;16.80;9.85;;;12.00;20.40;;;;;;5082428;28;20997;-54
2022/04/30 10:19:11;;;;;;;14.38;9.70;;;12.00;17.80;;;;;;5080649;28;20872;-56
2022/04/30 10:21:38;;;;;;;15.50;9.30;;;11.90;25.60;;;;;;5081414;28;20393;-55
2022/04/30 10:24:05;;;;;;;13.70;8.57;;;11.90;52.80;;;;;;5060208;28;20839;-53
2022/04/30 10:26:31;;;;;;;13.77;8.48;;;12.00;5.30;;;;;;5057764;28;20399;-54
2022/04/30 10:29:08;;;;;;;13.50;8.52;;;11.90;15.10;;;;;;5057190;28;20393;-54
2022/04/30 10:31:43;;;;;;;11.27;7.38;;;12.00;27.10;;;;;;5059040;28;20424;-54
2022/04/30 10:34:08;;;;;;;12.85;7.60;;;12.30;1.00;;;;;;5061070;28;20411;-54
2022/04/30 10:36:37;;;;;;;11.00;7.25;;;12.60;1.00;;;;;;5059577;28;20533;-54
2022/04/30 10:39:05;;;;;;;10.30;6.68;;;12.80;1.00;;;;;;5057673;28;20397;-54
2022/04/30 10:41:45;;;;;;;10.88;7.20;;;12.90;1.00;;;;;;5059184;28;20395;-54
2022/04/30 10:44:13;;;;;;;9.40;6.30;;;13.10;1.00;;;;;;5060001;28;20420;-54
2022/04/30 10:46:44;;;;;;;10.95;6.25;;;13.20;1.00;;;;;;5059315;28;20401;-54
2022/04/30 10:49:10;;;;;;;10.90;6.70;;;13.30;1.00;;;;;;5057892;28;20879;-54
2022/04/30 10:51:38;;;;;;;9.48;5.90;;;13.70;1.00;;;;;;5062635;28;20402;-55
2022/04/30 10:54:18;;;;;;;11.40;6.90;;;13.70;99.90;;;;;;5058035;28;20425;-57
2022/04/30 10:56:45;;;;;;;10.18;6.05;;;13.60;99.90;;;;;;5060937;28;20394;-55
2022/04/30 10:59:21;;;;;;;13.00;7.10;;;13.30;99.90;;;;;;5063553;28;20404;-54
2022/04/30 11:01:50;;;;;;;11.30;6.88;;;13.20;99.90;;;;;;5066433;28;20860;-54
2022/04/30 11:04:17;;;;;;;10.88;7.20;;;12.80;1.00;;;;;;5062334;28;20503;-57
2022/04/30 11:06:44;;;;;;;13.35;8.43;;;12.70;1.00;;;;;;5057765;28;20400;-55
2022/04/30 11:09:10;;;;;;;12.53;7.70;;;12.90;1.00;;;;;;5043045;28;20436;-55
2022/04/30 11:11:36;;;;;;;11.23;6.93;;;13.20;1.00;;;;;;5042304;28;20417;-55
2022/04/30 11:14:07;;;;;;;10.63;7.18;;;13.30;1.00;;;;;;5062545;28;20519;-55
2022/04/30 11:16:35;;;;;;;12.07;7.50;;;13.30;1.00;;;;;;5061093;28;20415;-55
2022/04/30 11:19:08;;;;;;;11.00;7.57;;;13.40;1.00;;;;;;5063177;28;20423;-56
2022/04/30 11:21:40;;;;;;;10.00;6.88;;;13.40;1.00;;;;;;5058072;28;20422;-55
2022/04/30 11:24:09;;;;;;;10.20;6.40;;;15.20;1.00;;;;;;5067331;28;20418;-55
2022/04/30 11:26:39;;;;;;;11.93;6.90;;;13.50;1.00;;;;;;5059930;28;20436;-56
2022/04/30 11:29:12;;;;;;;11.98;7.05;;;13.60;1.00;;;;;;5045378;28;20464;-56
2022/04/30 11:31:39;;;;;;;11.18;7.38;;;13.70;1.00;;;;;;5063046;28;21075;-56
2022/04/30 11:34:12;;;;;;;11.10;7.57;;;13.70;99.90;;;;;;5059420;28;20477;-57
2022/04/30 11:36:43;;;;;;;11.60;7.80;;;13.50;99.90;;;;;;5034272;28;20385;-56
2022/04/30 11:39:10;;;;;;;12.17;7.60;;;13.40;1.00;;;;;;5067107;28;20505;-56
2022/04/30 11:41:44;;;;;;;10.77;6.70;;;13.40;99.90;;;;;;5071745;28;20380;-57
2022/04/30 11:44:11;;;;;;;11.17;7.37;;;13.50;99.90;;;;;;5061964;28;20425;-56
2022/04/30 11:46:40;;;;;;;16.30;10.38;;;13.40;1.00;;;;;;5062631;28;20403;-56
2022/04/30 11:49:11;;;;;;;12.40;8.50;;;13.30;99.90;;;;;;5065246;28;20392;-56
2022/04/30 11:51:37;;;;;;;11.30;7.70;;;13.50;1.00;;;;;;5056935;28;20842;-56
2022/04/30 11:54:07;;;;;;;13.18;8.65;;;13.70;1.00;;;;;;5040366;28;20512;-56
2022/04/30 11:56:33;;;;;;;11.57;8.40;;;13.90;99.90;;;;;;5062619;28;20403;-56
2022/04/30 11:58:58;;;;;;;11.27;7.88;;;14.20;99.90;;;;;;5064793;28;20425;-56
2022/04/30 12:01:33;;;;;;;10.90;8.00;;;14.20;1.00;;;;;;5061054;28;20431;-56
2022/04/30 12:04:11;;;;;;;12.70;8.88;;;14.40;99.90;;;;;;5064718;28;20422;-56
2022/04/30 12:06:38;;;;;;;11.40;7.93;;;14.50;1.00;;;;;;5062595;28;20403;-56
2022/04/30 12:09:18;;;;;;;11.82;7.65;;;14.50;1.00;;;;;;5067802;28;20905;-56
2022/04/30 12:11:51;;;;;;;11.40;7.88;;;14.50;99.90;;;;;;5062012;28;20380;-56
2022/04/30 12:14:18;;;;;;;10.13;6.35;;;14.60;99.90;;;;;;5062677;28;20764;-56
2022/04/30 12:16:46;;;;;;;10.75;6.10;;;14.50;1.00;;;;;;5060665;28;20402;-56
2022/04/30 12:25:13;;;;;;;11.55;7.03;;;14.70;1.00;;;;;;5061829;28;20415;-56
2022/04/30 12:27:40;;;;;;;12.63;8.70;;;14.40;1.00;;;;;;5058710;28;20498;-57
2022/04/30 12:30:14;;;;;;;13.70;8.90;;;13.90;1.00;;;;;;5063568;28;20387;-56
2022/04/30 12:33:06;;;;;;;13.73;9.30;;;13.90;99.90;;;;;;5061918;28;20401;-57
2022/04/30 12:35:34;;;;;;;14.02;8.63;;;13.60;1.00;;;;;;5055442;28;20422;-56
2022/04/30 12:38:13;;;;;;;14.95;10.30;;;13.20;1.00;;;;;;5060890;28;20416;-56
2022/04/30 12:40:45;;;;;;;17.88;11.00;;;12.80;99.90;;;;;;5061459;28;20447;-56
2022/04/30 12:43:11;;;;;;;18.60;10.77;;;12.40;1.00;;;;;;5062337;28;20440;-56
2022/04/30 12:45:40;;;;;;;19.05;11.88;;;12.00;1.00;;;;;;5040917;28;20385;-57
2022/04/30 12:48:06;;;;;;;18.92;11.90;;;11.70;1.00;;;;;;5040969;28;20405;-56
2022/04/30 12:50:33;;;;;;;20.33;12.05;;;11.70;1.00;;;;;;5063229;28;20559;-56
2022/04/30 12:52:59;;;;;;;20.27;12.80;;;11.70;1.00;;;;;;5060624;28;20382;-56
2022/04/30 12:55:25;;;;;;;21.45;13.50;;;11.70;1.00;;;;;;5062940;28;20391;-57
2022/04/30 12:57:51;;;;;;;22.50;14.20;;;11.80;1.00;;;;;;5062695;28;20880;-56
2022/04/30 13:00:18;;;;;;;23.63;14.55;;;11.90;1.00;;;;;;5062586;28;20460;-56
2022/04/30 13:02:45;;;;;;;22.17;13.85;;;12.00;1.00;;;;;;5059520;28;20392;-57
2022/04/30 13:05:12;;;;;;;21.00;14.43;;;12.20;1.00;;;;;;5067228;28;20974;-56
2022/04/30 13:07:41;;;;;;;24.63;15.13;;;12.30;1.00;;;;;;5046146;28;20411;-57
2022/04/30 13:15:38;;;;;;;26.95;16.65;;;12.10;1.00;;;;;;5064946;28;20436;-56
2022/04/30 13:18:04;;;;;;;23.60;15.50;;;12.20;1.00;;;;;;5062318;28;20565;-57
2022/04/30 13:20:30;;;;;;;24.70;15.18;;;12.10;1.00;;;;;;5060519;28;20411;-57
2022/04/30 13:22:59;;;;;;;23.17;14.80;;;12.10;1.00;;;;;;5059210;28;20426;-56
2022/04/30 13:25:25;;;;;;;23.48;15.40;;;12.00;1.00;;;;;;5058919;28;20474;-56